DW5057 Cape May Point NJ US current weather conditions

sailwx.info

Wind from 068 at 1 knots gusting 3

Air temperature 20.6° C
Dewpoint 19.0° C

Last reported at 2020-Aug-08 10:00 UTC.
Time now 2020-Aug-08 11:06 UTC

Location: N 38°56' W 074°58'.
View on Google Maps.

See reports from other nearby stations

  
Tides and Currents Weather Stations Pressure Air Temp Water Temp Dewpoint Dewpoint Depression Visibility Wind Speed Wind Dir Waves Ship Positions
date/time (UTC)wind fromknots sea level pressurealtimeterstation pressurevisibilityair tempwater tempwave heightnotes
2020-Aug-08 10:00 068 1 gusting 3 20.6
2020-Aug-08 09:50 068 1 gusting 3 20.6
2020-Aug-08 09:40 090 1 gusting 3 20.6
2020-Aug-08 09:30 068 1 gusting 3 20.6
2020-Aug-08 09:20 068 1 gusting 3 20.6
2020-Aug-08 09:10 068 1 gusting 3 20.6
2020-Aug-08 09:00 068 1 gusting 3 20.6
2020-Aug-08 08:50 045 2 gusting 5 20.6
2020-Aug-08 08:40 068 1 gusting 4 20.6
2020-Aug-08 08:30 068 2 gusting 4 20.6
2020-Aug-08 08:20 068 3 gusting 6 20.6
2020-Aug-08 08:10 090 2 gusting 6 20.0
2020-Aug-08 08:00 045 2 gusting 5 20.6
2020-Aug-08 07:50 068 3 gusting 6 20.6
2020-Aug-08 07:40 068 2 gusting 6 20.6
2020-Aug-08 07:30 045 2 gusting 7 20.6
2020-Aug-08 07:20 068 2 gusting 4 20.6
2020-Aug-08 07:10 023 1 gusting 3 20.6
2020-Aug-08 07:00 023 0 gusting 4 20.6
2020-Aug-08 06:50 20.6
2020-Aug-08 06:40 045 1 gusting 3 20.6
2020-Aug-08 06:30 068 1 gusting 4 20.6
2020-Aug-08 06:20 20.6
2020-Aug-08 06:10 20.6
2020-Aug-08 06:00 135 0 gusting 3 20.6
2020-Aug-08 05:50 20.6
2020-Aug-08 05:40 180 1 gusting 3 20.6
2020-Aug-08 05:30 20.0
2020-Aug-08 05:20 20.0
2020-Aug-08 05:10 180 0 gusting 3 20.0
2020-Aug-08 05:00 20.0
2020-Aug-08 04:50 20.0
2020-Aug-08 04:40 20.0
2020-Aug-08 04:30 20.0
2020-Aug-08 04:20 20.0
2020-Aug-08 04:10 20.0
2020-Aug-08 04:00 135 2 gusting 5 20.0
2020-Aug-08 03:50 113 1 gusting 4 20.0
2020-Aug-08 03:40 113 2 gusting 5 20.0
2020-Aug-08 03:30 113 3 gusting 7 20.0
2020-Aug-08 03:20 135 3 gusting 8 20.0
2020-Aug-08 03:10 135 4 gusting 8 20.0
2020-Aug-08 03:00 113 6 gusting 11 20.6
2020-Aug-08 02:50 113 6 gusting 12 20.6
2020-Aug-08 02:40 135 6 gusting 13 20.6
2020-Aug-08 02:30 113 5 gusting 9 20.0
2020-Aug-08 02:20 113 2 gusting 6 20.0
2020-Aug-08 02:10 113 1 gusting 3 20.0
2020-Aug-08 02:00 090 1 gusting 6 20.6
2020-Aug-08 01:50 135 0 gusting 2 20.0
2020-Aug-08 01:40 225 2 gusting 6 20.0
2020-Aug-08 01:30 203 0 gusting 3 20.6
2020-Aug-08 01:20 225 1 gusting 4 20.6
2020-Aug-08 01:10 20.6
2020-Aug-08 01:00 338 6 gusting 15 22.2
2020-Aug-08 00:50 338 1 gusting 7 22.8
2020-Aug-08 00:40 113 2 gusting 7 22.2
2020-Aug-08 00:30 068 2 gusting 6 22.2
2020-Aug-08 00:20 068 3 gusting 7 22.2
2020-Aug-08 00:10 113 2 gusting 7 22.2
2020-Aug-08 00:00 113 5 gusting 9 22.2
2020-Aug-07 23:50 113 5 gusting 9 22.8
2020-Aug-07 23:40 113 4 gusting 8 22.8
2020-Aug-07 23:30 113 3 gusting 9 22.8
2020-Aug-07 23:20 090 3 gusting 6 22.8
2020-Aug-07 23:10 090 4 gusting 8 23.3
2020-Aug-07 23:00 113 4 gusting 7 23.3
2020-Aug-07 22:50 113 4 gusting 7 23.9
2020-Aug-07 22:40 113 4 gusting 7 23.9
2020-Aug-07 22:30 113 4 gusting 9 24.4
2020-Aug-07 22:20 090 5 gusting 8 24.4
2020-Aug-07 22:10 113 6 gusting 10 24.4
2020-Aug-07 22:00 113 4 gusting 8 24.4
2020-Aug-07 21:50 113 5 gusting 9 24.4
2020-Aug-07 21:40 113 5 gusting 10 25.0
2020-Aug-07 21:30 113 5 gusting 12 25.6
2020-Aug-07 21:20 090 5 gusting 10 25.6
2020-Aug-07 21:10 113 5 gusting 8 25.6
2020-Aug-07 21:00 113 5 gusting 11 25.6
2020-Aug-07 20:50 113 4 gusting 9 25.0
2020-Aug-07 20:40 113 6 gusting 11 25.0
2020-Aug-07 20:30 113 3 gusting 9 26.1
2020-Aug-07 20:20 135 4 gusting 8 25.6
2020-Aug-07 20:10 135 6 gusting 10 25.6
2020-Aug-07 20:00 113 5 gusting 10 26.1
2020-Aug-07 19:50 113 5 gusting 10 25.6
2020-Aug-07 19:40 135 5 gusting 10 26.1
2020-Aug-07 19:30 135 2 gusting 8 26.1
2020-Aug-07 19:20 113 5 gusting 9 25.6
2020-Aug-07 19:10 113 4 gusting 7 26.1
2020-Aug-07 19:00 135 2 gusting 8 26.1
2020-Aug-07 18:50 135 5 gusting 8 25.6
2020-Aug-07 18:40 135 3 gusting 6 25.6
2020-Aug-07 18:30 158 3 gusting 7 26.1
2020-Aug-07 18:20 158 1 gusting 6 26.7
2020-Aug-07 18:10 158 0 gusting 4 26.7
2020-Aug-07 18:00 180 2 gusting 6 26.1
2020-Aug-07 17:50 180 1 gusting 5 26.1
2020-Aug-07 17:40 158 1 gusting 6 26.1
2020-Aug-07 17:30 180 2 gusting 6 25.6
2020-Aug-07 17:20 203 0 gusting 5 26.1
2020-Aug-07 17:10 180 2 gusting 6 25.6
2020-Aug-07 17:00 180 2 gusting 7 26.1
2020-Aug-07 16:50 158 1 gusting 5 26.7
2020-Aug-07 16:40 225 1 gusting 5 26.7
2020-Aug-07 16:30 180 1 gusting 3 26.1
2020-Aug-07 16:20 180 1 gusting 4 25.6
2020-Aug-07 16:10 158 2 gusting 5 25.6
2020-Aug-07 16:00 158 2 gusting 6 25.6
2020-Aug-07 15:50 158 1 gusting 5 25.6
2020-Aug-07 15:40 180 2 gusting 6 25.6
2020-Aug-07 15:30 135 1 gusting 4 25.6
2020-Aug-07 15:20 158 0 gusting 3 26.1
2020-Aug-07 15:10 180 1 gusting 3 26.1
2020-Aug-07 15:00 180 2 gusting 6 25.6
2020-Aug-07 14:50 180 2 gusting 6 25.0
2020-Aug-07 14:40 158 3 gusting 6 25.0
2020-Aug-07 14:30 135 3 gusting 6 24.4
2020-Aug-07 14:20 158 3 gusting 6 23.9
2020-Aug-07 14:10 113 2 gusting 6 23.9
2020-Aug-07 14:00 113 3 gusting 6 23.9
2020-Aug-07 13:50 135 4 gusting 7 24.4
2020-Aug-07 13:40 135 5 gusting 7 25.0
2020-Aug-07 13:30 135 4 gusting 8 25.0
2020-Aug-07 13:20 135 3 gusting 7 25.0
2020-Aug-07 13:10 113 2 gusting 6 24.4
2020-Aug-07 13:00 113 4 gusting 7 24.4
2020-Aug-07 12:50 113 4 gusting 7 24.4
2020-Aug-07 12:40 113 3 gusting 8 24.4
2020-Aug-07 12:30 090 2 gusting 7 23.9
2020-Aug-07 12:20 113 2 gusting 6 23.3
2020-Aug-07 12:10 090 1 gusting 5 23.3
2020-Aug-07 12:00 090 1 gusting 4 22.8
2020-Aug-07 11:50 068 1 gusting 4 22.8
2020-Aug-07 11:40 090 2 gusting 6 22.8
2020-Aug-07 11:30 068 2 gusting 5 22.8
2020-Aug-07 11:20 090 1 gusting 6 22.8
2020-Aug-07 11:10 090 1 gusting 3 22.2
2020-Aug-07 11:00 113 1 gusting 3 22.2
2020-Aug-07 10:50 090 1 gusting 5 22.2
2020-Aug-07 10:40 090 0 gusting 2 22.2
2020-Aug-07 10:30 090 0 gusting 3 22.2
2020-Aug-07 10:20 090 0 gusting 2 21.7
2020-Aug-07 10:10 068 1 gusting 4 21.7
2020-Aug-07 10:00 068 1 gusting 3 21.7
2020-Aug-07 09:50 090 1 gusting 6 21.7
2020-Aug-07 09:40 090 1 gusting 5 21.7
2020-Aug-07 09:30 068 1 gusting 3 21.7
2020-Aug-07 09:20 090 1 gusting 3 21.7
2020-Aug-07 09:10 090 1 gusting 5 21.7
2020-Aug-07 09:00 068 2 gusting 5 21.7
2020-Aug-07 08:50 090 1 gusting 5 21.7
2020-Aug-07 08:40 068 2 gusting 6 21.7
2020-Aug-07 08:30 068 2 gusting 6 21.7
2020-Aug-07 08:20 068 2 gusting 6 21.7
2020-Aug-07 08:10 068 3 gusting 7 21.7
2020-Aug-07 08:00 068 3 gusting 6 21.7
2020-Aug-07 07:50 068 2 gusting 7 21.7
2020-Aug-07 07:40 068 3 gusting 6 21.7
2020-Aug-07 07:30 045 3 gusting 8 21.7
2020-Aug-07 07:20 068 2 gusting 6 21.7
2020-Aug-07 07:10 068 3 gusting 7 21.7
2020-Aug-07 07:00 090 1 gusting 4 21.7
2020-Aug-07 06:50 090 1 gusting 3 22.2
2020-Aug-07 06:40 090 0 gusting 3 22.2
2020-Aug-07 06:30 113 1 gusting 5 22.2
2020-Aug-07 06:20 068 1 gusting 3 22.2
2020-Aug-07 06:12 068 2 gusting 4 22.2
2020-Aug-07 06:00 068 0 gusting 4 21.7
2020-Aug-07 05:50 068 3 gusting 6 21.7
2020-Aug-07 05:40 068 3 gusting 6 21.7
2020-Aug-07 05:30 068 2 gusting 6 21.7
2020-Aug-07 05:20 068 1 gusting 6 21.7
2020-Aug-07 05:10 090 2 gusting 6 21.7
2020-Aug-07 05:00 068 5 gusting 8 22.2
2020-Aug-07 04:50 113 2 gusting 6 22.2
2020-Aug-07 04:40 090 3 gusting 7 22.2
2020-Aug-07 04:30 090 2 gusting 6 22.2
2020-Aug-07 04:20 113 2 gusting 6 22.2
2020-Aug-07 04:10 113 3 gusting 7 22.2
2020-Aug-07 04:00 113 1 gusting 5 21.7
2020-Aug-07 03:50 068 2 gusting 6 21.7
2020-Aug-07 03:40 090 2 gusting 6 21.7
2020-Aug-07 03:30 090 2 gusting 6 21.7
2020-Aug-07 03:20 045 2 gusting 4 21.7
2020-Aug-07 03:10 068 2 gusting 4 21.7
2020-Aug-07 03:00 090 2 gusting 6 21.7
2020-Aug-07 02:50 068 2 gusting 3 21.7
2020-Aug-07 02:40 068 3 gusting 7 21.7
2020-Aug-07 02:30 068 2 gusting 6 21.7
2020-Aug-07 02:20 068 3 gusting 6 22.2
2020-Aug-07 02:10 068 2 gusting 5 22.2
2020-Aug-07 02:00 068 2 gusting 6 22.2
2020-Aug-07 01:50 068 1 gusting 3 22.2
2020-Aug-07 01:40 090 1 gusting 3 22.2
2020-Aug-07 01:30 090 1 gusting 5 22.2
2020-Aug-07 01:20 22.2
2020-Aug-07 01:10 113 1 gusting 3 22.2
2020-Aug-07 01:00 113 0 gusting 3 22.2
2020-Aug-07 00:50 068 1 gusting 3 22.2
2020-Aug-07 00:40 090 1 gusting 2 22.2
2020-Aug-07 00:30 113 0 gusting 3 22.2
2020-Aug-07 00:20 113 1 gusting 4 22.2
2020-Aug-07 00:10 068 2 gusting 6 22.2
2020-Aug-07 00:00 068 2 gusting 5 22.2
2020-Aug-06 23:50 090 2 gusting 4 22.2
2020-Aug-06 23:40 068 2 gusting 6 22.2
2020-Aug-06 23:30 068 2 gusting 5 22.2
2020-Aug-06 23:20 090 2 gusting 5 22.2
2020-Aug-06 23:10 068 2 gusting 5 22.2
2020-Aug-06 23:00 090 3 gusting 6 22.2
2020-Aug-06 22:50 068 2 gusting 6 22.2
2020-Aug-06 22:40 090 1 gusting 3 22.8
2020-Aug-06 22:30 090 1 gusting 2 22.2
2020-Aug-06 22:20 068 3 gusting 8 22.2
2020-Aug-06 22:10 090 3 gusting 7 22.2
2020-Aug-06 22:00 068 4 gusting 9 22.8
2020-Aug-06 21:50 090 3 gusting 8 22.8
2020-Aug-06 21:40 090 3 gusting 6 22.8
2020-Aug-06 21:30 068 4 gusting 10 22.8
2020-Aug-06 21:20 068 3 gusting 7 22.8
2020-Aug-06 21:10 068 5 gusting 11 22.8
2020-Aug-06 21:00 068 3 gusting 7 22.8
2020-Aug-06 20:50 068 5 gusting 10 22.8
2020-Aug-06 20:40 068 4 gusting 8 22.8
2020-Aug-06 20:30 090 3 gusting 8 23.3
2020-Aug-06 20:20 113 5 gusting 9 22.8
2020-Aug-06 20:10 113 4 gusting 8 23.3
2020-Aug-06 20:00 090 4 gusting 10 23.3
2020-Aug-06 19:50 113 4 gusting 8 23.3
2020-Aug-06 19:40 113 5 gusting 11 23.3
2020-Aug-06 19:30 113 5 gusting 10 23.3
2020-Aug-06 19:20 113 6 gusting 12 23.3
2020-Aug-06 19:10 113 7 gusting 13 23.9
2020-Aug-06 19:00 113 7 gusting 14 23.9
2020-Aug-06 18:50 113 6 gusting 13 24.4
2020-Aug-06 18:40 090 6 gusting 13 24.4
2020-Aug-06 18:30 113 6 gusting 13 24.4
2020-Aug-06 18:20 113 6 gusting 12 23.9
2020-Aug-06 18:10 090 6 gusting 13 23.3
2020-Aug-06 18:00 090 6 gusting 11 23.3
2020-Aug-06 17:50 090 6 gusting 16 23.3
2020-Aug-06 17:40 113 7 gusting 15 23.3
2020-Aug-06 17:30 113 7 gusting 13 22.8
2020-Aug-06 17:20 113 6 gusting 13 23.3
2020-Aug-06 17:10 113 6 gusting 14 23.9
2020-Aug-06 17:00 090 6 gusting 13 23.3
2020-Aug-06 16:50 090 6 gusting 13 23.3
2020-Aug-06 16:40 090 7 gusting 16 23.3
2020-Aug-06 16:30 068 8 gusting 17 23.3
2020-Aug-06 16:20 068 6 gusting 14 23.3
2020-Aug-06 16:10 068 5 gusting 10 22.8
2020-Aug-06 16:00 113 6 gusting 10 22.2
2020-Aug-06 15:50 113 6 gusting 12 22.2
2020-Aug-06 15:40 113 7 gusting 13 21.7
2020-Aug-06 15:30 090 5 gusting 12 21.7
2020-Aug-06 15:20 090 3 gusting 7 21.7
2020-Aug-06 15:10 068 5 gusting 11 21.1
2020-Aug-06 15:00 090 5 gusting 11 21.1
2020-Aug-06 14:50 090 2 gusting 8 20.6
2020-Aug-06 14:40 113 2 gusting 6 20.6
2020-Aug-06 14:30 113 4 gusting 7 20.6
2020-Aug-06 14:20 113 2 gusting 6 20.6
2020-Aug-06 14:10 113 4 gusting 9 21.1
2020-Aug-06 14:00 068 2 gusting 6 21.1
2020-Aug-06 13:50 113 2 gusting 6 21.7
2020-Aug-06 13:40 090 3 gusting 7 21.7
2020-Aug-06 13:30 068 3 gusting 8 21.7
2020-Aug-06 13:20 113 2 gusting 5 21.7
2020-Aug-06 13:10 045 2 gusting 6 21.7
2020-Aug-06 13:00 068 0 gusting 4 22.2
2020-Aug-06 12:50 22.2
2020-Aug-06 12:40 21.7
2020-Aug-06 12:30 315 5 gusting 10 21.1
2020-Aug-06 12:20 315 10 gusting 23 21.7
2020-Aug-06 12:10 315 7 gusting 16 21.7
2020-Aug-06 12:00 135 0 gusting 4 21.7
2020-Aug-06 11:50 135 1 gusting 5 22.2
2020-Aug-06 11:40 135 2 gusting 6 22.2
2020-Aug-06 11:30 135 3 gusting 7 22.8
2020-Aug-06 11:20 158 2 gusting 6 23.3
2020-Aug-06 11:10 135 0 gusting 3 22.8
2020-Aug-06 11:00 135 0 gusting 3 22.8